Time;durP1;ratioP1;P1;durP2;ratioP2;P2;SDS_P1;SDS_P2;PMS_P1;PMS_P2;Temp;Humidity;BMP_temperature;BMP_pressure;BME280_temperature;BME280_humidity;BME280_pressure;Samples;Min_cycle;Max_cycle;Signal;HPM_P1;HPM_P2
2024/03/22 00:00:11;;;;;;;5.17;2.30;;;21.70;67.30;;;;;;5067446;28;20176;-74
2024/03/22 00:02:41;;;;;;;7.40;2.20;;;21.90;66.70;;;;;;5073650;28;20679;-72
2024/03/22 00:05:09;;;;;;;9.80;2.30;;;22.00;65.60;;;;;;5071393;28;20276;-74
2024/03/22 00:07:37;;;;;;;6.73;1.80;;;22.10;64.60;;;;;;5060002;28;20182;-72
2024/03/22 00:10:05;;;;;;;9.27;2.00;;;22.20;65.40;;;;;;5074721;28;20748;-73
2024/03/22 00:12:32;;;;;;;7.93;2.17;;;22.40;65.00;;;;;;5072708;28;20170;-72
2024/03/22 00:15:00;;;;;;;8.87;2.30;;;22.40;64.50;;;;;;5069177;28;20274;-73
2024/03/22 00:17:27;;;;;;;7.30;2.47;;;22.20;64.00;;;;;;5072585;28;20710;-71
2024/03/22 00:19:54;;;;;;;7.20;2.07;;;22.20;65.10;;;;;;5068113;28;20181;-73
2024/03/22 00:22:22;;;;;;;9.20;2.10;;;22.30;64.90;;;;;;5069220;28;20176;-73
2024/03/22 00:24:49;;;;;;;8.07;2.20;;;22.10;65.40;;;;;;5054027;28;20214;-71
2024/03/22 00:27:16;;;;;;;7.30;1.83;;;22.30;64.50;;;;;;5077219;28;20241;-73
2024/03/22 00:29:44;;;;;;;10.30;1.80;;;22.40;65.20;;;;;;5071690;28;20232;-72
2024/03/22 00:32:11;;;;;;;7.20;1.80;;;22.80;64.90;;;;;;5072888;28;20197;-72
2024/03/22 00:34:38;;;;;;;7.50;1.90;;;23.00;63.70;;;;;;5070980;28;20191;-73
2024/03/22 00:37:06;;;;;;;9.43;1.73;;;22.80;63.10;;;;;;5069495;28;20179;-71
2024/03/22 00:39:34;;;;;;;10.63;2.47;;;22.60;64.50;;;;;;5060490;28;20757;-71
2024/03/22 00:42:01;;;;;;;5.63;1.80;;;22.80;63.90;;;;;;5076302;28;20588;-70
2024/03/22 00:44:28;;;;;;;8.77;1.83;;;22.90;63.90;;;;;;5059901;28;20212;-73
2024/03/22 00:46:56;;;;;;;10.53;2.40;;;23.00;64.40;;;;;;5074201;28;20184;-71
2024/03/22 00:49:23;;;;;;;8.67;2.40;;;23.10;63.90;;;;;;5073924;28;20179;-72
2024/03/22 00:51:50;;;;;;;8.83;2.23;;;23.10;62.90;;;;;;5072709;28;20183;-76
2024/03/22 00:54:17;;;;;;;9.73;2.30;;;22.80;64.60;;;;;;5071649;28;20215;-71
2024/03/22 00:56:45;;;;;;;9.53;2.00;;;22.90;64.20;;;;;;5074269;28;20198;-71
2024/03/22 00:59:12;;;;;;;14.07;2.43;;;23.30;63.80;;;;;;5077850;28;20190;-74
2024/03/22 01:01:39;;;;;;;5.97;1.80;;;23.60;62.70;;;;;;5060606;28;20196;-71
2024/03/22 01:04:08;;;;;;;9.47;2.23;;;23.60;62.40;;;;;;5069617;28;20610;-71
2024/03/22 01:06:36;;;;;;;8.67;2.03;;;23.60;62.00;;;;;;5073419;28;20279;-72
2024/03/22 01:09:03;;;;;;;6.87;2.23;;;23.30;62.00;;;;;;5078812;28;20301;-72
2024/03/22 01:11:31;;;;;;;8.83;2.30;;;23.30;62.30;;;;;;5071442;28;20172;-72
2024/03/22 01:13:58;;;;;;;8.07;2.07;;;23.30;62.40;;;;;;5068715;28;20183;-72
2024/03/22 01:16:25;;;;;;;8.63;1.77;;;23.40;62.80;;;;;;5077600;28;20182;-71
2024/03/22 01:18:52;;;;;;;9.30;1.83;;;23.80;62.10;;;;;;5073101;28;20183;-74
2024/03/22 01:21:24;;;;;;;3.10;1.30;;;24.30;61.10;;;;;;5072076;28;20256;-71
2024/03/22 01:23:53;;;;;;;6.20;2.13;;;24.40;60.20;;;;;;5068749;28;20653;-72
2024/03/22 01:26:20;;;;;;;7.10;1.47;;;24.70;59.40;;;;;;5073339;28;20219;-73
2024/03/22 01:28:48;;;;;;;13.40;1.90;;;24.30;59.90;;;;;;5075109;28;20181;-75
2024/03/22 01:31:16;;;;;;;6.77;1.40;;;24.30;59.50;;;;;;5072294;28;20191;-74
2024/03/22 01:33:43;;;;;;;7.30;1.77;;;23.90;60.00;;;;;;5076384;28;20179;-74
2024/03/22 01:36:10;;;;;;;6.03;1.70;;;23.60;61.70;;;;;;5075931;28;20215;-73
2024/03/22 01:38:37;;;;;;;5.47;1.50;;;23.60;61.90;;;;;;5078031;28;20238;-74
2024/03/22 01:41:05;;;;;;;5.67;1.63;;;23.50;62.30;;;;;;5080748;28;20580;-71
2024/03/22 01:43:33;;;;;;;8.07;1.60;;;23.60;62.60;;;;;;5075977;28;20188;-75
2024/03/22 01:46:00;;;;;;;6.80;1.43;;;23.60;62.50;;;;;;5078981;28;20289;-74
2024/03/22 01:48:28;;;;;;;7.90;1.80;;;23.70;62.10;;;;;;5076593;28;20185;-72
2024/03/22 01:50:55;;;;;;;10.97;1.90;;;23.50;61.50;;;;;;5074217;28;20861;-76
2024/03/22 01:53:23;;;;;;;5.10;1.40;;;23.30;62.20;;;;;;5080947;28;20267;-75
2024/03/22 01:55:51;;;;;;;7.77;2.10;;;23.60;62.00;;;;;;5075137;28;20221;-72
2024/03/22 01:58:18;;;;;;;6.33;1.40;;;23.70;62.50;;;;;;5077675;28;20190;-74
2024/03/22 02:00:46;;;;;;;6.17;1.37;;;23.80;62.10;;;;;;5078511;28;20186;-74
2024/03/22 02:03:13;;;;;;;4.67;1.37;;;23.80;61.30;;;;;;5078718;28;20195;-76
2024/03/22 02:05:41;;;;;;;8.03;1.67;;;23.80;61.80;;;;;;5074356;28;20223;-75
2024/03/22 02:08:08;;;;;;;4.80;1.50;;;24.20;61.10;;;;;;5075157;28;20187;-75
2024/03/22 02:10:35;;;;;;;12.17;1.60;;;24.50;60.40;;;;;;5072989;28;20725;-75
2024/03/22 02:13:03;;;;;;;5.10;1.47;;;24.50;60.70;;;;;;5077734;28;20228;-76
2024/03/22 02:15:31;;;;;;;7.47;2.03;;;24.60;60.90;;;;;;5078491;28;20185;-75
2024/03/22 02:17:58;;;;;;;4.90;1.37;;;24.60;60.20;;;;;;5074739;28;20285;-72
2024/03/22 02:20:25;;;;;;;6.83;1.50;;;24.90;59.10;;;;;;5077506;28;20697;-73
2024/03/22 02:22:53;;;;;;;4.20;1.43;;;25.60;58.60;;;;;;5082215;28;20184;-75
2024/03/22 02:25:20;;;;;;;5.93;1.60;;;26.00;57.00;;;;;;5071415;28;20218;-71
2024/03/22 02:27:50;;;;;;;7.67;1.60;;;26.20;56.50;;;;;;5081875;28;20641;-73
2024/03/22 02:30:18;;;;;;;6.20;1.80;;;25.80;57.40;;;;;;5071820;28;20185;-71
2024/03/22 02:32:45;;;;;;;9.53;1.50;;;25.70;57.30;;;;;;5070723;28;20704;-74
2024/03/22 02:35:12;;;;;;;10.20;1.83;;;25.20;57.80;;;;;;5074496;28;20679;-73
2024/03/22 02:37:40;;;;;;;6.87;1.60;;;24.50;60.20;;;;;;5078710;28;20241;-71
2024/03/22 02:40:07;;;;;;;12.83;1.60;;;24.40;60.50;;;;;;5074180;28;20193;-72
2024/03/22 02:42:35;;;;;;;7.40;1.93;;;24.30;60.70;;;;;;5073637;28;20205;-74
2024/03/22 02:45:02;;;;;;;8.97;1.83;;;24.20;61.30;;;;;;5074921;28;20276;-74
2024/03/22 02:47:30;;;;;;;6.77;1.70;;;24.10;62.00;;;;;;5074022;28;20385;-72
2024/03/22 02:49:57;;;;;;;7.30;1.67;;;23.70;65.80;;;;;;5071895;28;20402;-73
2024/03/22 02:52:24;;;;;;;6.37;1.70;;;23.30;67.30;;;;;;5073275;28;20265;-75
2024/03/22 02:54:51;;;;;;;9.00;1.93;;;22.90;68.50;;;;;;5073635;28;20725;-74
2024/03/22 02:57:20;;;;;;;7.47;1.50;;;22.80;70.50;;;;;;5074038;28;20613;-77
2024/03/22 02:59:47;;;;;;;6.50;1.60;;;23.10;71.70;;;;;;5071426;28;20723;-76
2024/03/22 03:02:14;;;;;;;4.73;1.37;;;23.80;69.30;;;;;;5071019;28;20187;-73
2024/03/22 03:04:42;;;;;;;10.10;1.60;;;24.80;64.40;;;;;;5072425;28;20211;-71
2024/03/22 03:07:09;;;;;;;7.37;1.50;;;25.20;62.00;;;;;;5067281;28;20627;-75
2024/03/22 03:09:36;;;;;;;8.77;2.10;;;25.30;61.00;;;;;;5073167;28;20553;-71
2024/03/22 03:12:04;;;;;;;7.33;1.80;;;25.50;61.70;;;;;;5070865;28;20175;-75
2024/03/22 03:14:31;;;;;;;8.30;1.70;;;25.80;58.90;;;;;;5078150;28;20198;-72
2024/03/22 03:16:59;;;;;;;4.83;1.37;;;25.50;57.40;;;;;;5075710;28;20189;-74
2024/03/22 03:19:26;;;;;;;5.27;1.50;;;25.40;58.80;;;;;;5072982;28;20187;-72
2024/03/22 03:21:53;;;;;;;5.43;1.90;;;25.00;58.90;;;;;;5069948;28;20731;-75
2024/03/22 03:24:21;;;;;;;9.73;1.53;;;24.70;60.50;;;;;;5074868;28;20178;-71
2024/03/22 03:26:48;;;;;;;5.67;1.40;;;24.70;60.80;;;;;;5073950;28;20183;-74
2024/03/22 03:29:15;;;;;;;5.13;1.23;;;24.90;60.00;;;;;;5075707;28;20179;-79
2024/03/22 03:31:43;;;;;;;5.67;1.37;;;25.00;58.40;;;;;;5063136;28;20270;-70
2024/03/22 03:34:11;;;;;;;7.80;1.10;;;24.90;57.20;;;;;;5077668;28;20653;-72
2024/03/22 03:36:38;;;;;;;5.23;1.40;;;25.00;56.80;;;;;;5073650;28;20171;-71
2024/03/22 03:39:06;;;;;;;7.13;1.53;;;25.20;57.80;;;;;;5073858;28;20230;-71
2024/03/22 03:41:33;;;;;;;7.70;1.97;;;25.80;56.80;;;;;;5081372;28;20198;-72
2024/03/22 03:44:01;;;;;;;8.40;1.73;;;26.10;55.80;;;;;;5077859;28;20206;-76
2024/03/22 03:46:29;;;;;;;8.97;1.27;;;26.70;53.60;;;;;;5075464;28;20306;-76
2024/03/22 03:48:56;;;;;;;9.20;1.70;;;26.60;54.90;;;;;;5071500;28;20183;-76
2024/03/22 03:51:23;;;;;;;6.50;1.90;;;26.00;56.70;;;;;;5078687;28;20254;-76
2024/03/22 03:53:50;;;;;;;7.37;1.63;;;25.70;58.50;;;;;;5074383;28;20262;-76
2024/03/22 03:56:18;;;;;;;8.47;1.77;;;25.30;58.90;;;;;;5071194;28;20191;-73
2024/03/22 03:58:47;;;;;;;8.10;1.70;;;25.20;59.80;;;;;;5072196;28;20253;-76
2024/03/22 04:01:14;;;;;;;10.37;1.57;;;25.20;59.80;;;;;;5073133;28;20186;-78
2024/03/22 04:03:45;;;;;;;7.27;2.00;;;25.30;59.80;;;;;;5073360;28;20186;-78
2024/03/22 04:06:13;;;;;;;6.57;1.33;;;25.30;58.90;;;;;;5075770;28;20577;-78
2024/03/22 04:08:40;;;;;;;14.07;2.40;;;25.10;60.10;;;;;;5072918;28;20171;-78
2024/03/22 04:11:07;;;;;;;6.27;1.90;;;24.60;61.10;;;;;;5071342;28;20221;-77
2024/03/22 04:13:35;;;;;;;6.47;1.33;;;24.30;62.30;;;;;;5071696;28;20190;-82
2024/03/22 04:16:02;;;;;;;6.73;1.40;;;23.80;63.10;;;;;;5081472;28;20228;-78
2024/03/22 04:18:29;;;;;;;7.33;1.40;;;23.40;64.40;;;;;;5074970;28;20183;-76
2024/03/22 04:20:59;;;;;;;8.40;1.90;;;23.30;65.60;;;;;;5077926;28;20174;-77
2024/03/22 04:23:26;;;;;;;7.73;1.53;;;23.20;66.10;;;;;;5075833;28;20183;-77
2024/03/22 04:26:01;;;;;;;7.13;1.30;;;23.00;66.60;;;;;;5071314;28;20223;-71
2024/03/22 04:28:29;;;;;;;7.63;1.33;;;22.80;67.30;;;;;;5074181;28;20279;-73
2024/03/22 04:31:02;;;;;;;7.33;1.63;;;22.80;66.50;;;;;;5073655;28;20220;-70
2024/03/22 04:33:34;;;;;;;5.60;1.40;;;22.80;66.90;;;;;;5074475;28;20590;-74
2024/03/22 04:36:02;;;;;;;6.63;1.50;;;22.80;64.90;;;;;;5064881;28;20187;-73
2024/03/22 04:38:30;;;;;;;7.53;1.73;;;22.80;64.80;;;;;;5074660;28;20304;-75
2024/03/22 04:40:58;;;;;;;6.40;1.50;;;22.90;64.90;;;;;;5070713;28;20206;-73
2024/03/22 04:43:26;;;;;;;5.27;1.00;;;22.90;64.70;;;;;;5071555;28;20190;-74
2024/03/22 04:45:53;;;;;;;7.20;1.60;;;22.70;65.10;;;;;;5072808;28;20673;-73
2024/03/22 04:48:22;;;;;;;8.87;1.60;;;22.80;64.80;;;;;;5075941;28;20626;-71
2024/03/22 04:50:51;;;;;;;11.23;1.53;;;22.80;64.90;;;;;;5073021;28;20265;-75
2024/03/22 04:53:21;;;;;;;6.70;1.27;;;22.90;64.40;;;;;;5070944;28;20319;-74
2024/03/22 04:55:49;;;;;;;7.57;1.40;;;23.00;64.40;;;;;;5079625;28;20197;-74
2024/03/22 04:58:18;;;;;;;6.40;1.47;;;23.20;64.50;;;;;;5074929;28;20772;-74
2024/03/22 05:00:46;;;;;;;11.97;1.63;;;23.30;63.90;;;;;;5071836;28;20647;-75
2024/03/22 05:03:14;;;;;;;4.27;1.27;;;23.70;63.60;;;;;;5079984;28;20194;-76
2024/03/22 05:05:43;;;;;;;6.37;1.20;;;23.80;62.60;;;;;;5072418;28;20520;-73
2024/03/22 05:08:10;;;;;;;4.37;1.10;;;24.10;61.70;;;;;;5072900;28;20174;-78
2024/03/22 05:10:38;;;;;;;5.53;1.27;;;24.00;62.30;;;;;;5075953;28;20183;-74
2024/03/22 05:13:05;;;;;;;7.43;1.70;;;24.20;62.60;;;;;;5071689;28;20183;-77
2024/03/22 05:15:32;;;;;;;4.67;1.20;;;24.50;60.80;;;;;;5072421;28;20545;-77
2024/03/22 05:18:00;;;;;;;6.83;1.67;;;24.50;61.50;;;;;;5070328;28;20259;-77
2024/03/22 05:20:27;;;;;;;5.97;1.40;;;24.60;61.10;;;;;;5073799;28;20183;-77
2024/03/22 05:23:00;;;;;;;5.37;1.57;;;24.60;61.40;;;;;;5073316;28;20219;-76
2024/03/22 05:25:28;;;;;;;7.57;1.60;;;24.40;61.40;;;;;;5069723;28;20577;-77
2024/03/22 05:27:55;;;;;;;6.17;1.73;;;25.00;61.60;;;;;;5092971;28;20183;-79
2024/03/22 05:30:23;;;;;;;6.10;1.60;;;26.00;57.60;;;;;;5073649;28;20176;-76
2024/03/22 05:32:50;;;;;;;4.20;1.20;;;26.90;55.10;;;;;;5073066;28;20203;-75
2024/03/22 05:35:18;;;;;;;8.13;1.47;;;27.30;54.10;;;;;;5074096;28;20650;-76
2024/03/22 05:37:46;;;;;;;9.43;2.00;;;27.50;52.30;;;;;;5074464;28;20325;-78
2024/03/22 05:40:14;;;;;;;6.70;1.97;;;27.80;51.10;;;;;;5073634;28;20266;-75
2024/03/22 05:42:41;;;;;;;3.40;1.40;;;28.30;50.40;;;;;;5070540;28;20186;-71
2024/03/22 05:45:09;;;;;;;6.50;1.70;;;28.70;50.30;;;;;;5072762;28;20214;-70
2024/03/22 05:47:37;;;;;;;8.20;1.30;;;28.30;50.40;;;;;;5068776;28;20183;-70
2024/03/22 05:50:08;;;;;;;5.67;1.40;;;27.10;52.70;;;;;;5071392;28;20183;-73
2024/03/22 05:52:35;;;;;;;3.90;1.30;;;27.20;53.70;;;;;;5075508;28;20183;-73
2024/03/22 05:55:02;;;;;;;5.93;1.30;;;27.40;52.20;;;;;;5077389;28;20629;-70
2024/03/22 05:57:30;;;;;;;3.17;0.97;;;28.10;50.30;;;;;;5072812;28;20198;-74
2024/03/22 05:59:57;;;;;;;4.40;1.23;;;27.90;51.20;;;;;;5071439;28;20188;-71
2024/03/22 06:02:24;;;;;;;4.93;1.00;;;28.50;49.20;;;;;;5072893;28;20241;-74
2024/03/22 06:04:52;;;;;;;5.47;1.53;;;27.80;50.40;;;;;;5075543;28;20290;-72
2024/03/22 06:07:19;;;;;;;5.07;1.73;;;26.30;53.80;;;;;;5073823;28;20272;-72
2024/03/22 06:09:46;;;;;;;9.37;2.00;;;26.10;55.30;;;;;;5077041;28;20287;-75
2024/03/22 06:12:14;;;;;;;8.97;1.70;;;26.10;54.80;;;;;;5072622;28;20187;-71
2024/03/22 06:14:46;;;;;;;5.03;1.30;;;26.80;52.80;;;;;;5079745;28;20293;-74
2024/03/22 06:17:13;;;;;;;5.63;1.30;;;27.10;52.00;;;;;;5071174;28;20179;-73
2024/03/22 06:19:41;;;;;;;6.80;1.37;;;27.70;50.40;;;;;;5081316;28;20493;-74
2024/03/22 06:22:08;;;;;;;10.27;2.07;;;28.10;51.40;;;;;;5076206;28;20533;-74
2024/03/22 06:24:35;;;;;;;4.07;1.20;;;28.10;50.20;;;;;;5083929;28;20216;-72
2024/03/22 06:27:03;;;;;;;5.10;1.10;;;28.00;50.20;;;;;;5077379;28;20262;-72
2024/03/22 06:29:30;;;;;;;9.83;1.63;;;28.20;49.90;;;;;;5078423;28;20187;-76
2024/03/22 06:31:58;;;;;;;4.97;1.60;;;27.60;51.20;;;;;;5077519;28;20191;-73
2024/03/22 06:34:25;;;;;;;10.40;1.80;;;28.00;50.50;;;;;;5082362;28;20183;-77
2024/03/22 06:36:52;;;;;;;4.73;1.67;;;27.50;51.20;;;;;;5077776;28;20281;-74
2024/03/22 06:39:19;;;;;;;5.13;1.40;;;27.60;50.40;;;;;;5083270;28;20223;-77
2024/03/22 06:41:47;;;;;;;6.30;1.33;;;27.50;49.50;;;;;;5079221;28;20186;-70
2024/03/22 06:44:14;;;;;;;4.97;1.53;;;27.30;49.70;;;;;;5077264;28;20180;-72
2024/03/22 06:46:41;;;;;;;3.77;1.10;;;27.60;49.10;;;;;;5072331;28;20800;-74
2024/03/22 06:49:09;;;;;;;4.57;1.27;;;27.80;48.40;;;;;;5080721;28;20658;-73
2024/03/22 06:51:36;;;;;;;6.23;1.43;;;27.80;49.00;;;;;;5076076;28;20183;-74
2024/03/22 06:54:03;;;;;;;2.83;1.00;;;27.60;48.80;;;;;;5061356;28;20179;-76
2024/03/22 06:56:31;;;;;;;6.00;1.43;;;27.70;48.20;;;;;;5079954;28;21596;-73
2024/03/22 06:58:58;;;;;;;7.40;1.70;;;27.60;48.80;;;;;;5077386;28;20528;-77
2024/03/22 07:01:25;;;;;;;5.67;1.40;;;27.80;48.40;;;;;;5078584;28;20179;-76
2024/03/22 07:03:52;;;;;;;7.07;1.50;;;27.60;49.10;;;;;;5079087;28;20190;-76
2024/03/22 07:06:20;;;;;;;8.93;1.57;;;27.80;48.50;;;;;;5061523;28;20809;-78
2024/03/22 07:08:47;;;;;;;8.03;1.70;;;27.00;50.20;;;;;;5075988;28;20270;-78
2024/03/22 07:11:15;;;;;;;7.17;1.50;;;26.90;50.60;;;;;;5073471;28;20179;-80
2024/03/22 07:13:42;;;;;;;5.80;1.27;;;26.90;50.90;;;;;;5075610;28;20191;-74
2024/03/22 07:16:09;;;;;;;5.27;1.57;;;26.70;51.10;;;;;;5075793;28;20186;-78
2024/03/22 07:18:37;;;;;;;4.10;1.40;;;26.60;51.90;;;;;;5074935;28;20270;-76
2024/03/22 07:21:04;;;;;;;8.30;2.13;;;26.30;52.60;;;;;;5074473;28;20186;-78
2024/03/22 07:23:32;;;;;;;6.17;1.73;;;26.20;53.50;;;;;;5083817;28;20282;-73
2024/03/22 07:25:59;;;;;;;5.53;1.47;;;25.80;54.60;;;;;;5075681;28;20207;-72
2024/03/22 07:28:26;;;;;;;7.87;1.60;;;25.60;54.40;;;;;;5081554;28;20224;-70
2024/03/22 07:30:55;;;;;;;5.97;1.20;;;25.40;54.20;;;;;;5077097;28;20183;-72
2024/03/22 07:33:22;;;;;;;6.23;1.30;;;24.70;55.10;;;;;;5082708;28;20251;-78
2024/03/22 07:35:49;;;;;;;5.03;1.30;;;23.80;57.80;;;;;;5078029;28;20207;-77
2024/03/22 07:38:16;;;;;;;5.43;1.60;;;23.30;59.40;;;;;;5083360;28;20230;-72
2024/03/22 07:40:44;;;;;;;9.73;1.43;;;23.00;60.60;;;;;;5080306;28;20190;-74
2024/03/22 07:43:13;;;;;;;9.13;1.67;;;22.80;61.80;;;;;;5075359;28;20209;-76
2024/03/22 07:45:40;;;;;;;5.43;1.50;;;22.70;62.70;;;;;;5079379;28;20236;-75
2024/03/22 07:48:07;;;;;;;5.67;1.50;;;22.60;63.20;;;;;;5082840;28;20523;-71
2024/03/22 07:50:35;;;;;;;8.00;1.53;;;22.50;63.70;;;;;;5080680;28;20218;-77
2024/03/22 07:53:02;;;;;;;5.90;1.50;;;22.40;64.00;;;;;;5076904;28;20171;-70
2024/03/22 07:55:29;;;;;;;8.60;1.40;;;22.20;64.90;;;;;;5075143;28;20180;-73
2024/03/22 07:57:57;;;;;;;6.60;1.30;;;22.10;65.50;;;;;;5080671;28;20515;-75
2024/03/22 08:00:25;;;;;;;7.87;1.97;;;22.00;66.10;;;;;;5075077;28;20175;-74
2024/03/22 08:02:53;;;;;;;11.30;2.00;;;21.90;66.30;;;;;;5080463;28;20182;-71
2024/03/22 08:05:20;;;;;;;7.03;1.60;;;21.80;67.00;;;;;;5074585;28;20227;-76
2024/03/22 08:07:47;;;;;;;5.13;1.20;;;21.80;67.50;;;;;;5079431;28;20187;-73
2024/03/22 08:10:15;;;;;;;11.53;1.67;;;21.70;67.80;;;;;;5074397;28;20186;-72
2024/03/22 08:12:45;;;;;;;9.27;1.40;;;21.70;68.20;;;;;;5078108;28;20194;-73
2024/03/22 08:15:15;;;;;;;8.70;1.60;;;21.60;68.40;;;;;;5077534;28;20179;-74
2024/03/22 08:17:43;;;;;;;4.43;1.30;;;21.50;68.70;;;;;;5076031;28;20194;-73
2024/03/22 08:20:11;;;;;;;5.30;1.70;;;21.50;68.80;;;;;;5072892;28;20191;-75
2024/03/22 08:22:38;;;;;;;5.03;1.53;;;21.50;68.90;;;;;;5080257;28;20193;-71
2024/03/22 08:25:07;;;;;;;7.97;1.70;;;21.40;69.30;;;;;;5079211;28;20215;-72
2024/03/22 08:27:35;;;;;;;9.03;2.00;;;21.30;69.20;;;;;;5078219;28;20699;-72
2024/03/22 08:30:03;;;;;;;13.20;2.03;;;21.30;69.30;;;;;;5074216;28;20190;-70
2024/03/22 08:32:31;;;;;;;10.27;1.87;;;21.30;69.60;;;;;;5076571;28;20197;-75
2024/03/22 08:34:58;;;;;;;7.80;1.57;;;21.30;69.80;;;;;;5072230;28;20193;-74
2024/03/22 08:37:26;;;;;;;5.30;1.13;;;21.30;70.30;;;;;;5077963;28;20567;-74
2024/03/22 08:39:53;;;;;;;7.20;1.70;;;21.30;70.30;;;;;;5078119;28;20673;-72
2024/03/22 08:42:20;;;;;;;6.53;2.03;;;21.30;70.60;;;;;;5073730;28;20194;-71
2024/03/22 08:44:48;;;;;;;6.47;1.90;;;21.20;71.00;;;;;;5075146;28;20767;-72
2024/03/22 08:47:15;;;;;;;7.67;1.90;;;21.10;71.10;;;;;;5079715;28;20198;-76
2024/03/22 08:49:44;;;;;;;8.47;2.17;;;21.10;71.40;;;;;;5074513;28;20696;-73
2024/03/22 08:52:11;;;;;;;9.73;1.70;;;21.10;71.70;;;;;;5085340;28;20187;-72
2024/03/22 08:54:39;;;;;;;7.63;1.87;;;21.00;71.90;;;;;;5078211;28;20179;-75
2024/03/22 08:57:06;;;;;;;6.03;1.60;;;21.00;72.20;;;;;;5073233;28;20718;-75
2024/03/22 08:59:35;;;;;;;7.03;1.70;;;21.00;72.50;;;;;;5074933;28;20257;-76
2024/03/22 09:02:02;;;;;;;8.10;1.63;;;21.00;72.80;;;;;;5067328;28;20266;-74
2024/03/22 09:04:29;;;;;;;7.17;1.67;;;20.90;73.00;;;;;;5075737;28;20175;-75
2024/03/22 09:06:58;;;;;;;7.47;1.80;;;21.00;73.10;;;;;;5073431;28;20211;-74
2024/03/22 09:09:25;;;;;;;9.77;2.17;;;20.90;73.20;;;;;;5073890;28;20198;-77
2024/03/22 09:11:52;;;;;;;6.27;1.70;;;20.90;73.60;;;;;;5075641;28;20633;-78
2024/03/22 09:14:20;;;;;;;10.73;2.00;;;20.90;74.00;;;;;;5073676;28;20188;-76
2024/03/22 09:16:47;;;;;;;7.30;1.63;;;20.90;74.00;;;;;;5077658;28;20270;-76
2024/03/22 09:19:14;;;;;;;6.10;1.67;;;20.80;74.10;;;;;;5072181;28;20190;-76
2024/03/22 09:21:42;;;;;;;11.97;2.07;;;20.80;74.40;;;;;;5074067;28;20182;-74
2024/03/22 09:24:10;;;;;;;11.63;1.80;;;20.80;74.60;;;;;;5073451;28;20186;-75
2024/03/22 09:26:37;;;;;;;8.10;2.00;;;20.80;74.60;;;;;;5082568;28;20703;-74
2024/03/22 09:29:04;;;;;;;6.90;1.80;;;20.80;75.00;;;;;;5073761;28;20273;-75
2024/03/22 09:31:33;;;;;;;8.30;1.50;;;20.70;74.50;;;;;;5072011;28;20191;-77
2024/03/22 09:34:01;;;;;;;7.97;1.93;;;20.60;74.50;;;;;;5069864;28;20193;-73
2024/03/22 09:36:31;;;;;;;9.50;1.63;;;20.60;73.40;;;;;;5081345;28;20183;-73
2024/03/22 09:38:58;;;;;;;10.67;1.90;;;20.70;73.10;;;;;;5076355;28;20223;-74
2024/03/22 09:41:26;;;;;;;6.53;1.20;;;20.70;72.70;;;;;;5080999;28;20253;-73
2024/03/22 09:43:54;;;;;;;7.73;1.53;;;20.70;72.30;;;;;;5075431;28;20240;-74
2024/03/22 09:46:22;;;;;;;9.30;1.70;;;20.70;72.40;;;;;;5078899;28;20218;-74
2024/03/22 09:48:52;;;;;;;5.40;1.50;;;20.70;72.60;;;;;;5074689;28;20310;-75
2024/03/22 09:51:21;;;;;;;8.70;1.67;;;20.70;72.70;;;;;;5081533;28;20183;-73
2024/03/22 09:53:54;;;;;;;14.00;2.40;;;20.60;72.80;;;;;;5079417;28;20310;-72
2024/03/22 09:56:24;;;;;;;6.83;1.50;;;20.50;73.00;;;;;;5079507;28;20222;-73
2024/03/22 09:58:51;;;;;;;9.40;2.03;;;20.60;72.90;;;;;;5084632;28;20198;-72
2024/03/22 10:01:18;;;;;;;6.63;1.67;;;20.50;73.00;;;;;;5078914;28;20191;-71
2024/03/22 10:03:46;;;;;;;8.00;1.90;;;20.50;73.10;;;;;;5081995;28;20175;-73
2024/03/22 10:06:13;;;;;;;7.20;1.80;;;20.50;73.10;;;;;;5075075;28;20199;-71
2024/03/22 10:08:40;;;;;;;12.93;1.90;;;20.50;73.10;;;;;;5075641;28;20194;-72
2024/03/22 10:11:08;;;;;;;6.83;1.60;;;20.50;72.90;;;;;;5075307;28;20187;-72
2024/03/22 10:13:35;;;;;;;12.93;2.53;;;20.50;73.00;;;;;;5066885;28;20174;-72
2024/03/22 10:16:03;;;;;;;16.40;5.17;;;20.50;73.10;;;;;;5058376;28;20191;-70
2024/03/22 10:18:34;;;;;;;11.57;3.23;;;20.50;73.30;;;;;;5084206;28;20218;-74
2024/03/22 10:21:05;;;;;;;16.77;3.73;;;20.40;73.60;;;;;;5075918;28;20183;-71
2024/03/22 10:23:33;;;;;;;7.83;2.00;;;20.40;74.00;;;;;;5083691;28;20174;-71
2024/03/22 10:26:03;;;;;;;14.63;2.23;;;20.40;74.10;;;;;;5083041;28;20569;-72
2024/03/22 10:28:31;;;;;;;7.23;1.60;;;20.40;74.40;;;;;;5081231;28;20183;-73
2024/03/22 10:30:59;;;;;;;6.47;1.53;;;20.30;74.20;;;;;;5075631;28;20187;-74
2024/03/22 10:33:28;;;;;;;15.90;2.23;;;20.30;74.20;;;;;;5102423;28;20182;-73
2024/03/22 10:35:56;;;;;;;11.00;2.10;;;20.30;74.30;;;;;;5074394;28;20278;-73
2024/03/22 10:38:23;;;;;;;8.10;1.60;;;20.30;74.70;;;;;;5078850;28;20227;-72
2024/03/22 10:40:51;;;;;;;9.83;1.67;;;20.30;74.80;;;;;;5074554;28;20183;-75
2024/03/22 10:43:18;;;;;;;12.37;2.10;;;20.30;74.90;;;;;;5080013;28;20710;-74
2024/03/22 10:45:48;;;;;;;10.83;2.20;;;20.30;75.10;;;;;;5072930;28;20677;-76
2024/03/22 10:48:20;;;;;;;9.27;1.87;;;20.30;75.30;;;;;;5080429;28;20187;-74
2024/03/22 10:50:47;;;;;;;8.33;1.80;;;20.20;75.40;;;;;;5078634;28;20614;-74
2024/03/22 10:53:27;;;;;;;8.90;2.20;;;20.20;75.60;;;;;;5073934;28;20175;-73
2024/03/22 10:55:56;;;;;;;9.27;1.80;;;20.20;75.90;;;;;;5074336;28;20179;-75
2024/03/22 10:58:25;;;;;;;6.07;1.57;;;20.20;76.20;;;;;;5069755;28;20559;-74
2024/03/22 11:00:56;;;;;;;9.60;2.10;;;20.10;76.40;;;;;;5089171;28;20274;-73
2024/03/22 11:03:26;;;;;;;5.63;1.60;;;20.10;76.70;;;;;;5081234;28;20621;-72
2024/03/22 11:05:57;;;;;;;9.50;1.67;;;20.00;76.80;;;;;;5073029;28;20221;-74
2024/03/22 11:08:29;;;;;;;8.63;1.80;;;20.00;77.10;;;;;;5072914;28;20175;-72
2024/03/22 11:10:58;;;;;;;7.57;1.80;;;20.10;77.20;;;;;;5072512;28;20175;-72
2024/03/22 11:13:25;;;;;;;5.57;1.30;;;20.10;77.10;;;;;;5069434;28;20186;-72
2024/03/22 11:15:53;;;;;;;7.47;1.43;;;20.10;77.10;;;;;;5071669;28;20538;-71
2024/03/22 11:18:23;;;;;;;7.73;1.53;;;20.10;77.30;;;;;;5079926;28;20187;-73
2024/03/22 11:20:50;;;;;;;9.47;2.10;;;20.10;77.40;;;;;;5075572;28;20180;-74
2024/03/22 11:23:17;;;;;;;9.47;2.00;;;20.10;77.50;;;;;;5074055;28;20172;-74
2024/03/22 11:25:46;;;;;;;7.57;1.70;;;20.00;77.50;;;;;;5074783;28;20816;-74
2024/03/22 11:28:16;;;;;;;10.00;1.50;;;20.00;77.50;;;;;;5078846;28;20629;-73
2024/03/22 11:30:44;;;;;;;8.63;1.77;;;20.00;77.50;;;;;;5074314;28;20210;-74
2024/03/22 11:33:11;;;;;;;6.87;1.57;;;20.00;77.60;;;;;;5074316;28;20182;-74
2024/03/22 11:35:39;;;;;;;7.07;1.93;;;19.90;77.60;;;;;;5071159;28;20195;-71
2024/03/22 11:38:07;;;;;;;5.90;1.43;;;19.90;77.60;;;;;;5074118;28;20223;-72
2024/03/22 11:40:35;;;;;;;12.00;1.93;;;19.90;77.70;;;;;;5074729;28;20217;-71
2024/03/22 11:43:03;;;;;;;5.20;1.63;;;19.90;77.80;;;;;;5075265;28;20190;-73
2024/03/22 11:45:34;;;;;;;13.30;2.10;;;19.80;77.80;;;;;;5077431;28;20247;-72
2024/03/22 11:48:06;;;;;;;6.33;2.20;;;19.80;78.00;;;;;;5066177;28;21861;-74
2024/03/22 11:50:33;;;;;;;7.60;1.43;;;19.80;78.00;;;;;;5078364;28;20549;-71
2024/03/22 11:53:00;;;;;;;11.83;1.93;;;19.80;78.20;;;;;;5072045;28;20600;-74
2024/03/22 11:55:29;;;;;;;4.27;1.30;;;19.80;78.20;;;;;;5074384;28;20184;-71
2024/03/22 11:57:58;;;;;;;6.43;1.70;;;19.70;78.30;;;;;;5073035;28;20541;-73
2024/03/22 12:00:26;;;;;;;6.90;1.50;;;19.70;78.40;;;;;;5078732;28;20172;-75
2024/03/22 12:02:54;;;;;;;9.13;2.07;;;19.70;78.40;;;;;;5072398;28;20641;-72
2024/03/22 12:05:22;;;;;;;8.73;2.00;;;19.60;78.60;;;;;;5078023;28;20565;-72
2024/03/22 12:07:51;;;;;;;5.93;1.60;;;19.60;78.80;;;;;;5069688;28;20737;-75
2024/03/22 12:10:19;;;;;;;10.90;2.80;;;19.50;79.00;;;;;;5076781;28;20175;-71
2024/03/22 12:12:46;;;;;;;8.80;1.90;;;19.50;79.30;;;;;;5078388;28;20214;-70
2024/03/22 12:15:13;;;;;;;7.60;1.93;;;19.40;79.50;;;;;;5058935;28;20187;-71
2024/03/22 12:17:43;;;;;;;10.60;2.57;;;19.40;80.00;;;;;;5056124;28;20671;-71
2024/03/22 12:20:10;;;;;;;7.47;1.80;;;19.40;80.30;;;;;;5076100;28;20262;-71
2024/03/22 12:22:37;;;;;;;14.93;2.40;;;19.40;80.60;;;;;;5074955;28;20431;-71
2024/03/22 12:25:05;;;;;;;11.63;2.23;;;19.50;80.70;;;;;;5071355;28;20210;-72
2024/03/22 12:27:33;;;;;;;8.60;2.37;;;19.40;80.80;;;;;;5080064;28;20187;-73
2024/03/22 12:30:00;;;;;;;12.60;2.63;;;19.40;80.70;;;;;;5075947;28;20676;-76
2024/03/22 12:32:27;;;;;;;11.10;2.87;;;19.50;80.80;;;;;;5073460;28;20188;-71
2024/03/22 12:34:55;;;;;;;10.93;2.93;;;19.50;80.90;;;;;;5079988;28;20193;-73
2024/03/22 12:37:26;;;;;;;8.63;2.80;;;19.50;80.80;;;;;;5082251;28;20269;-74
2024/03/22 12:39:53;;;;;;;8.40;2.90;;;19.40;80.80;;;;;;5067997;28;20240;-73
2024/03/22 12:42:21;;;;;;;9.57;3.53;;;19.40;80.90;;;;;;5069530;28;20197;-76
2024/03/22 12:44:48;;;;;;;10.33;3.57;;;19.40;81.00;;;;;;5071851;28;20185;-72
2024/03/22 12:47:16;;;;;;;14.87;3.50;;;19.30;81.10;;;;;;5077829;28;20302;-73